createdAt,value
2023-04-11T00:00:02.686Z,5.70
2023-04-11T00:01:02.566Z,5.70
2023-04-11T00:02:01.603Z,5.10
2023-04-11T00:03:02.168Z,5.10
2023-04-11T00:04:02.161Z,5.10
2023-04-11T00:05:01.926Z,5.10
2023-04-11T00:06:01.663Z,5.10
2023-04-11T00:07:02.262Z,2.80
2023-04-11T00:08:01.744Z,2.80
2023-04-11T00:09:02.126Z,2.80
2023-04-11T00:10:01.944Z,2.80
2023-04-11T00:11:01.961Z,2.80
2023-04-11T00:12:02.520Z,2.70
2023-04-11T00:13:02.038Z,2.70
2023-04-11T00:14:01.927Z,2.70
2023-04-11T00:15:01.911Z,2.70
2023-04-11T00:16:02.565Z,2.70
2023-04-11T00:17:02.687Z,3.40
2023-04-11T00:18:02.283Z,3.40
2023-04-11T00:19:02.189Z,3.40
2023-04-11T00:20:02.697Z,3.40
2023-04-11T00:21:02.383Z,3.40
2023-04-11T00:22:02.913Z,4.30
2023-04-11T00:23:02.505Z,4.30
2023-04-11T00:24:02.352Z,4.30
2023-04-11T00:25:02.862Z,4.30
2023-04-11T00:26:02.347Z,4.30
2023-04-11T00:27:02.352Z,2.80
2023-04-11T00:28:02.896Z,2.80
2023-04-11T00:29:02.449Z,2.80
2023-04-11T00:30:02.340Z,2.80
2023-04-11T00:31:02.671Z,2.80
2023-04-11T00:32:01.707Z,4.50
2023-04-11T00:33:02.307Z,4.50
2023-04-11T00:34:02.011Z,4.50
2023-04-11T00:35:01.806Z,4.50
2023-04-11T00:36:01.620Z,4.50
2023-04-11T00:37:02.708Z,3.60
2023-04-11T00:38:02.489Z,3.60
2023-04-11T00:39:02.807Z,3.60
2023-04-11T00:40:02.475Z,3.60
2023-04-11T00:41:02.368Z,3.60
2023-04-11T00:42:02.240Z,4.90
2023-04-11T00:43:02.254Z,4.90
2023-04-11T00:44:02.802Z,4.90
2023-04-11T00:45:02.783Z,4.90
2023-04-11T00:46:02.605Z,4.90
2023-04-11T00:47:01.498Z,4.00
2023-04-11T00:48:02.118Z,4.00
2023-04-11T00:49:01.540Z,4.00
2023-04-11T00:50:01.406Z,4.00
2023-04-11T00:51:02.008Z,4.00
2023-04-11T00:52:01.623Z,5.00
2023-04-11T00:53:02.169Z,5.00
2023-04-11T00:54:02.210Z,5.00
2023-04-11T00:55:02.044Z,5.00
2023-04-11T00:56:01.570Z,5.00
2023-04-11T00:57:02.413Z,3.10
2023-04-11T00:58:02.389Z,3.10
2023-04-11T00:59:02.259Z,3.10
2023-04-11T01:00:02.134Z,3.10
2023-04-11T01:01:02.322Z,3.10
2023-04-11T01:02:02.943Z,4.20
2023-04-11T01:03:03.133Z,4.20
2023-04-11T01:04:03.318Z,4.20
2023-04-11T01:05:02.891Z,4.20
2023-04-11T01:06:02.875Z,4.20
2023-04-11T01:07:02.535Z,7.10
2023-04-11T01:08:02.734Z,7.10
2023-04-11T01:09:02.499Z,7.10
2023-04-11T01:10:02.386Z,7.10
2023-04-11T01:11:02.902Z,7.10
2023-04-11T01:12:02.603Z,6.40
2023-04-11T01:13:03.040Z,6.40
2023-04-11T01:14:02.889Z,6.40
2023-04-11T01:15:02.668Z,6.40
2023-04-11T01:16:02.725Z,6.40
2023-04-11T01:17:02.872Z,6.20
2023-04-11T01:18:02.564Z,6.20
2023-04-11T01:19:02.680Z,6.20
2023-04-11T01:20:02.621Z,6.20
2023-04-11T01:21:02.435Z,6.20
2023-04-11T01:22:03.294Z,5.80
2023-04-11T01:23:03.007Z,5.80
2023-04-11T01:24:03.050Z,5.80
2023-04-11T01:25:03.126Z,5.80
2023-04-11T01:26:03.400Z,5.80
2023-04-11T01:27:03.005Z,6.20
2023-04-11T01:28:03.263Z,6.20
2023-04-11T01:29:03.181Z,6.20
2023-04-11T01:30:03.298Z,6.20
2023-04-11T01:31:02.851Z,6.20
2023-04-11T01:32:02.561Z,7.40
2023-04-11T01:33:02.394Z,7.40
2023-04-11T01:34:02.733Z,7.40
2023-04-11T01:35:02.387Z,7.40
2023-04-11T01:36:02.254Z,7.40
2023-04-11T01:37:02.555Z,6.10
2023-04-11T01:38:02.753Z,6.10
2023-04-11T01:39:02.637Z,6.10
2023-04-11T01:40:03.056Z,6.10
2023-04-11T01:41:02.488Z,6.10
2023-04-11T01:42:03.048Z,8.50
2023-04-11T01:43:02.893Z,8.50
2023-04-11T01:44:02.815Z,8.50
2023-04-11T01:45:03.264Z,8.50
2023-04-11T01:46:02.931Z,8.50
2023-04-11T01:47:02.518Z,7.40
2023-04-11T01:48:02.936Z,7.40
2023-04-11T01:49:02.426Z,7.40
2023-04-11T01:50:02.567Z,7.40
2023-04-11T01:51:02.498Z,7.40
2023-04-11T01:52:03.191Z,8.00
2023-04-11T01:53:03.060Z,8.00
2023-04-11T01:54:03.361Z,8.00
2023-04-11T01:55:03.081Z,8.00
2023-04-11T01:56:03.049Z,8.00
2023-04-11T01:57:02.679Z,10.40
2023-04-11T01:58:02.350Z,10.40
2023-04-11T01:59:02.586Z,10.40
2023-04-11T02:00:02.609Z,10.40
2023-04-11T02:01:02.431Z,10.40
2023-04-11T02:02:02.910Z,6.90
2023-04-11T02:03:02.790Z,6.90
2023-04-11T02:04:02.762Z,6.90
2023-04-11T02:05:02.746Z,6.90
2023-04-11T02:06:02.608Z,6.90
2023-04-11T02:07:03.380Z,11.40
2023-04-11T02:08:03.050Z,11.40
2023-04-11T02:09:03.184Z,11.40
2023-04-11T02:10:03.410Z,11.40
2023-04-11T02:11:02.812Z,11.40
2023-04-11T02:12:03.476Z,9.00
2023-04-11T02:13:03.549Z,9.00
2023-04-11T02:14:03.535Z,9.00
2023-04-11T02:15:03.269Z,9.00
2023-04-11T02:16:03.305Z,9.00
2023-04-11T02:17:03.855Z,7.90
2023-04-11T02:18:03.590Z,7.90
2023-04-11T02:19:03.655Z,7.90
2023-04-11T02:20:03.879Z,7.90
2023-04-11T02:21:03.849Z,7.90
2023-04-11T02:22:03.962Z,8.80
2023-04-11T02:23:03.657Z,8.80
2023-04-11T02:24:03.939Z,8.80
2023-04-11T02:25:03.529Z,8.80
2023-04-11T02:26:03.301Z,8.80
2023-04-11T02:27:02.425Z,9.90
2023-04-11T02:28:02.442Z,9.90
2023-04-11T02:29:02.470Z,9.90
2023-04-11T02:30:02.776Z,9.90
2023-04-11T02:31:03.006Z,9.90
2023-04-11T02:32:03.524Z,13.10
2023-04-11T02:33:03.133Z,13.10
2023-04-11T02:34:03.346Z,13.10
2023-04-11T02:35:03.216Z,13.10
2023-04-11T02:36:03.097Z,13.10
2023-04-11T02:37:03.740Z,19.70
2023-04-11T02:38:03.888Z,19.70
2023-04-11T02:39:03.756Z,19.70
2023-04-11T02:40:03.731Z,19.70
2023-04-11T02:41:03.318Z,19.70
2023-04-11T02:42:03.164Z,13.20
2023-04-11T02:43:03.545Z,13.20
2023-04-11T02:44:03.168Z,13.20
2023-04-11T02:45:02.951Z,13.20
2023-04-11T02:46:12.508Z,13.20
2023-04-11T02:47:02.756Z,13.00
2023-04-11T02:48:02.826Z,13.00
2023-04-11T02:49:02.955Z,13.00
2023-04-11T02:50:02.398Z,13.00
2023-04-11T02:51:02.645Z,13.00
2023-04-11T02:52:03.113Z,15.90
2023-04-11T02:53:03.359Z,15.90
2023-04-11T02:54:03.220Z,15.90
2023-04-11T02:55:03.339Z,15.90
2023-04-11T02:56:03.157Z,15.90
2023-04-11T02:57:02.495Z,13.80
2023-04-11T02:58:02.361Z,13.80
2023-04-11T02:59:02.436Z,13.80
2023-04-11T03:00:02.993Z,13.80
2023-04-11T03:01:02.562Z,13.80
2023-04-11T03:02:03.187Z,11.00
2023-04-11T03:03:02.965Z,11.00
2023-04-11T03:04:02.765Z,11.00
2023-04-11T03:05:03.252Z,11.00
2023-04-11T03:06:03.013Z,11.00
2023-04-11T03:07:02.034Z,10.20
2023-04-11T03:08:02.289Z,10.20
2023-04-11T03:09:02.127Z,10.20
2023-04-11T03:10:02.163Z,10.20
2023-04-11T03:11:02.483Z,10.20
2023-04-11T03:12:02.600Z,14.80
2023-04-11T03:13:02.694Z,14.80
2023-04-11T03:14:02.985Z,14.80
2023-04-11T03:15:02.697Z,14.80
2023-04-11T03:16:02.921Z,14.80
2023-04-11T03:17:02.823Z,15.80
2023-04-11T03:18:03.037Z,15.80
2023-04-11T03:19:03.052Z,15.80
2023-04-11T03:20:03.139Z,15.80
2023-04-11T03:21:02.941Z,15.80
2023-04-11T03:22:02.463Z,20.90
2023-04-11T03:23:02.677Z,20.90
2023-04-11T03:24:02.139Z,20.90
2023-04-11T03:25:02.083Z,20.90
2023-04-11T03:26:02.612Z,20.90
2023-04-11T03:27:02.730Z,18.30
2023-04-11T03:28:02.613Z,18.30
2023-04-11T03:29:02.465Z,18.30
2023-04-11T03:30:02.672Z,18.30
2023-04-11T03:31:02.584Z,18.30
2023-04-11T03:32:02.696Z,16.70
2023-04-11T03:33:03.101Z,16.70
2023-04-11T03:34:03.258Z,16.70
2023-04-11T03:35:02.789Z,16.70
2023-04-11T03:36:02.872Z,16.70
2023-04-11T03:37:02.143Z,23.80
2023-04-11T03:38:02.379Z,23.80
2023-04-11T03:39:02.059Z,23.80
2023-04-11T03:40:02.320Z,23.80
2023-04-11T03:41:02.251Z,23.80
2023-04-11T03:42:02.708Z,18.70
2023-04-11T03:43:04.686Z,18.70
2023-04-11T03:44:02.464Z,18.70
2023-04-11T03:45:02.488Z,18.70
2023-04-11T03:46:02.344Z,18.70
2023-04-11T03:47:02.308Z,21.80
2023-04-11T03:48:02.810Z,21.80
2023-04-11T03:49:02.120Z,21.80
2023-04-11T03:50:02.360Z,21.80
2023-04-11T03:51:02.156Z,21.80
2023-04-11T03:52:02.407Z,17.80
2023-04-11T03:53:02.359Z,17.80
2023-04-11T03:54:02.803Z,17.80
2023-04-11T03:55:02.742Z,17.80
2023-04-11T03:56:02.614Z,17.80
2023-04-11T03:57:02.289Z,19.50
2023-04-11T03:58:02.013Z,19.50
2023-04-11T03:59:01.904Z,19.50
2023-04-11T04:00:01.971Z,19.50
2023-04-11T04:01:01.907Z,19.50
2023-04-11T04:02:02.396Z,20.90
2023-04-11T04:03:02.540Z,20.90
2023-04-11T04:04:03.370Z,20.90
2023-04-11T04:05:02.564Z,20.90
2023-04-11T04:06:02.465Z,20.90
2023-04-11T04:07:02.988Z,21.80
2023-04-11T04:08:03.160Z,21.80
2023-04-11T04:09:02.690Z,21.80
2023-04-11T04:10:02.613Z,21.80
2023-04-11T04:11:02.812Z,21.80
2023-04-11T04:12:02.460Z,17.10
2023-04-11T04:13:02.404Z,17.10
2023-04-11T04:14:02.517Z,17.10
2023-04-11T04:15:02.674Z,17.10
2023-04-11T04:16:03.943Z,17.10
2023-04-11T04:17:02.848Z,21.50
2023-04-11T04:18:02.659Z,21.50
2023-04-11T04:19:02.534Z,21.50
2023-04-11T04:20:02.792Z,21.50
2023-04-11T04:21:03.017Z,21.50
2023-04-11T04:22:01.958Z,24.30
2023-04-11T04:23:02.311Z,24.30
2023-04-11T04:24:01.974Z,24.30
2023-04-11T04:25:02.125Z,24.30
2023-04-11T04:26:02.094Z,24.30
2023-04-11T04:27:02.734Z,20.30
2023-04-11T04:28:02.254Z,20.30
2023-04-11T04:29:02.333Z,20.30
2023-04-11T04:30:04.129Z,20.30
2023-04-11T04:31:02.732Z,20.30
2023-04-11T04:32:03.160Z,16.90
2023-04-11T04:33:02.622Z,16.90
2023-04-11T04:34:02.366Z,16.90
2023-04-11T04:35:02.998Z,16.90
2023-04-11T04:36:03.037Z,16.90
2023-04-11T04:37:02.036Z,21.40
2023-04-11T04:38:02.331Z,21.40
2023-04-11T04:39:01.816Z,21.40
2023-04-11T04:40:01.901Z,21.40
2023-04-11T04:41:01.817Z,21.40
2023-04-11T04:42:02.294Z,21.90
2023-04-11T04:43:02.428Z,21.90
2023-04-11T04:44:02.082Z,21.90
2023-04-11T04:45:02.471Z,21.90
2023-04-11T04:46:02.429Z,21.90
2023-04-11T04:47:02.615Z,19.00
2023-04-11T04:48:02.455Z,19.00
2023-04-11T04:49:02.895Z,19.00
2023-04-11T04:50:02.551Z,19.00
2023-04-11T04:51:02.311Z,19.00
2023-04-11T04:52:02.863Z,18.10
2023-04-11T04:53:02.432Z,18.10
2023-04-11T04:54:02.751Z,18.10
2023-04-11T04:55:02.600Z,18.10
2023-04-11T04:56:02.911Z,18.10
2023-04-11T04:57:02.881Z,16.70
2023-04-11T04:58:02.535Z,16.70
2023-04-11T04:59:02.816Z,16.70
2023-04-11T05:00:03.107Z,16.70
2023-04-11T05:01:03.161Z,16.70
2023-04-11T05:02:03.013Z,21.10
2023-04-11T05:03:03.016Z,21.10
2023-04-11T05:04:03.681Z,21.10
2023-04-11T05:05:03.057Z,21.10
2023-04-11T05:06:02.835Z,21.10
2023-04-11T05:07:03.584Z,19.50
2023-04-11T05:08:03.462Z,19.50
2023-04-11T05:09:03.595Z,19.50
2023-04-11T05:10:03.370Z,19.50
2023-04-11T05:11:03.797Z,19.50
2023-04-11T05:12:03.957Z,26.50
2023-04-11T05:13:03.187Z,26.50
2023-04-11T05:14:03.479Z,26.50
2023-04-11T05:15:03.200Z,26.50
2023-04-11T05:16:03.263Z,26.50
2023-04-11T05:17:03.109Z,17.10
2023-04-11T05:18:02.960Z,17.10
2023-04-11T05:19:02.763Z,17.10
2023-04-11T05:20:02.725Z,17.10
2023-04-11T05:21:02.696Z,17.10
2023-04-11T05:22:03.473Z,18.70
2023-04-11T05:23:03.165Z,18.70
2023-04-11T05:24:03.297Z,18.70
2023-04-11T05:25:03.519Z,18.70
2023-04-11T05:26:03.381Z,18.70
2023-04-11T05:27:03.250Z,22.50
2023-04-11T05:28:03.478Z,22.50
2023-04-11T05:29:03.534Z,22.50
2023-04-11T05:30:03.197Z,22.50
2023-04-11T05:31:03.251Z,22.50
2023-04-11T05:32:03.076Z,21.10
2023-04-11T05:33:03.034Z,21.10
2023-04-11T05:34:02.805Z,21.10
2023-04-11T05:35:02.691Z,21.10
2023-04-11T05:36:02.773Z,21.10
2023-04-11T05:37:03.201Z,22.40
2023-04-11T05:38:02.916Z,22.40
2023-04-11T05:39:02.990Z,22.40
2023-04-11T05:40:03.512Z,22.40
2023-04-11T05:41:03.054Z,22.40
2023-04-11T05:42:03.209Z,18.30
2023-04-11T05:43:03.120Z,18.30
2023-04-11T05:44:03.559Z,18.30
2023-04-11T05:45:03.726Z,18.30
2023-04-11T05:46:03.129Z,18.30
2023-04-11T05:47:03.601Z,22.80
2023-04-11T05:48:03.430Z,22.80
2023-04-11T05:49:03.968Z,22.80
2023-04-11T05:50:03.608Z,22.80
2023-04-11T05:51:03.518Z,22.80
2023-04-11T05:52:03.539Z,18.20
2023-04-11T05:53:03.533Z,18.20
2023-04-11T05:54:03.229Z,18.20
2023-04-11T05:55:03.036Z,18.20
2023-04-11T05:56:03.499Z,18.20
2023-04-11T05:57:03.164Z,17.50
2023-04-11T05:58:03.221Z,17.50
2023-04-11T05:59:03.019Z,17.50
2023-04-11T06:00:03.084Z,17.50
2023-04-11T06:01:03.584Z,17.50
2023-04-11T06:02:02.648Z,18.10
2023-04-11T06:03:03.249Z,18.10
2023-04-11T06:04:03.076Z,18.10
2023-04-11T06:05:02.893Z,18.10
2023-04-11T06:06:02.812Z,18.10
2023-04-11T06:07:03.406Z,19.20
2023-04-11T06:08:03.065Z,19.20
2023-04-11T06:09:03.167Z,19.20
2023-04-11T06:10:03.164Z,19.20
2023-04-11T06:11:03.274Z,19.20
2023-04-11T06:12:02.468Z,21.70
2023-04-11T06:13:02.817Z,21.70
2023-04-11T06:14:02.906Z,21.70
2023-04-11T06:15:02.586Z,21.70
2023-04-11T06:16:02.929Z,21.70
2023-04-11T06:17:02.925Z,14.90
2023-04-11T06:18:02.972Z,14.90
2023-04-11T06:19:02.660Z,14.90
2023-04-11T06:20:05.941Z,14.90
2023-04-11T06:21:02.621Z,14.90
2023-04-11T06:22:02.000Z,18.10
2023-04-11T06:23:02.566Z,18.10
2023-04-11T06:24:02.346Z,18.10
2023-04-11T06:25:02.051Z,18.10
2023-04-11T06:26:02.158Z,18.10
2023-04-11T06:27:02.803Z,17.60
2023-04-11T06:28:02.846Z,17.60
2023-04-11T06:29:02.400Z,17.60
2023-04-11T06:30:02.673Z,17.60
2023-04-11T06:31:02.791Z,17.60
2023-04-11T06:32:02.369Z,20.60
2023-04-11T06:33:02.379Z,20.60
2023-04-11T06:34:02.597Z,20.60
2023-04-11T06:35:02.796Z,20.60
2023-04-11T06:36:04.859Z,20.60
2023-04-11T06:37:03.301Z,19.70
2023-04-11T06:38:02.800Z,19.70
2023-04-11T06:39:03.001Z,19.70
2023-04-11T06:40:03.198Z,19.70
2023-04-11T06:41:02.765Z,19.70
2023-04-11T06:42:02.169Z,20.00
2023-04-11T06:43:02.640Z,20.00
2023-04-11T06:44:02.267Z,20.00
2023-04-11T06:45:02.353Z,20.00
2023-04-11T06:46:02.691Z,20.00
2023-04-11T06:47:02.357Z,16.80
2023-04-11T06:48:02.755Z,16.80
2023-04-11T06:49:02.287Z,16.80
2023-04-11T06:50:02.133Z,16.80
2023-04-11T06:51:02.280Z,16.80
2023-04-11T06:52:02.933Z,20.60
2023-04-11T06:53:02.851Z,20.60
2023-04-11T06:54:02.442Z,20.60
2023-04-11T06:55:02.467Z,20.60
2023-04-11T06:56:03.069Z,20.60
2023-04-11T06:57:02.181Z,17.30
2023-04-11T06:58:02.488Z,17.30
2023-04-11T06:59:02.509Z,17.30
2023-04-11T07:00:02.399Z,17.30
2023-04-11T07:01:02.363Z,17.30
2023-04-11T07:02:02.343Z,20.00
2023-04-11T07:03:02.889Z,20.00
2023-04-11T07:04:02.821Z,20.00
2023-04-11T07:05:02.495Z,20.00
2023-04-11T07:06:02.244Z,20.00
2023-04-11T07:07:03.310Z,18.30
2023-04-11T07:08:02.890Z,18.30
2023-04-11T07:09:02.827Z,18.30
2023-04-11T07:10:03.325Z,18.30
2023-04-11T07:11:03.143Z,18.30
2023-04-11T07:12:02.695Z,21.90
2023-04-11T07:13:02.460Z,21.90
2023-04-11T07:14:02.445Z,21.90
2023-04-11T07:15:02.492Z,21.90
2023-04-11T07:16:02.977Z,21.90
2023-04-11T07:17:02.845Z,20.90
2023-04-11T07:18:02.777Z,20.90
2023-04-11T07:19:02.828Z,20.90
2023-04-11T07:20:02.745Z,20.90
2023-04-11T07:21:03.117Z,20.90
2023-04-11T07:22:02.811Z,21.80
2023-04-11T07:23:02.645Z,21.80
2023-04-11T07:24:02.584Z,21.80
2023-04-11T07:25:02.757Z,21.80
2023-04-11T07:26:02.463Z,21.80
2023-04-11T07:27:02.820Z,19.50
2023-04-11T07:28:02.714Z,19.50
2023-04-11T07:29:02.964Z,19.50
2023-04-11T07:30:02.958Z,19.50
2023-04-11T07:31:02.924Z,19.50
2023-04-11T07:32:03.153Z,24.90
2023-04-11T07:33:03.562Z,24.90
2023-04-11T07:34:03.414Z,24.90
2023-04-11T07:35:03.444Z,24.90
2023-04-11T07:36:03.234Z,24.90
2023-04-11T07:37:03.382Z,19.70
2023-04-11T07:38:03.408Z,19.70
2023-04-11T07:39:03.565Z,19.70
2023-04-11T07:40:03.657Z,19.70
2023-04-11T07:41:03.049Z,19.70
2023-04-11T07:42:02.655Z,17.20
2023-04-11T07:43:02.985Z,17.20
2023-04-11T07:44:02.774Z,17.20
2023-04-11T07:45:03.000Z,17.20
2023-04-11T07:46:02.864Z,17.20
2023-04-11T07:47:03.104Z,19.70
2023-04-11T07:48:02.827Z,19.70
2023-04-11T07:49:02.828Z,19.70
2023-04-11T07:50:02.879Z,19.70
2023-04-11T07:51:03.336Z,19.70
2023-04-11T07:52:02.748Z,15.50
2023-04-11T07:53:02.566Z,15.50
2023-04-11T07:54:02.167Z,15.50
2023-04-11T07:55:02.774Z,15.50
2023-04-11T07:56:02.399Z,15.50
2023-04-11T07:57:03.267Z,20.90
2023-04-11T07:58:02.605Z,20.90
2023-04-11T07:59:02.811Z,20.90
2023-04-11T08:00:02.978Z,20.90
2023-04-11T08:01:02.637Z,20.90
2023-04-11T08:02:02.451Z,17.30
2023-04-11T08:03:02.013Z,17.30
2023-04-11T08:04:02.549Z,17.30
2023-04-11T08:05:01.865Z,17.30
2023-04-11T08:06:02.319Z,17.30
2023-04-11T08:07:02.649Z,12.90
2023-04-11T08:08:02.687Z,12.90
2023-04-11T08:09:02.499Z,12.90
2023-04-11T08:10:02.204Z,12.90
2023-04-11T08:11:02.548Z,12.90
2023-04-11T08:12:03.279Z,16.10
2023-04-11T08:13:03.106Z,16.10
2023-04-11T08:14:03.029Z,16.10
2023-04-11T08:15:02.690Z,16.10
2023-04-11T08:16:02.958Z,16.10
2023-04-11T08:17:02.615Z,21.70
2023-04-11T08:18:02.431Z,21.70
2023-04-11T08:19:02.453Z,21.70
2023-04-11T08:20:02.719Z,21.70
2023-04-11T08:21:02.184Z,21.70
2023-04-11T08:22:02.710Z,17.60
2023-04-11T08:23:04.683Z,17.60
2023-04-11T08:24:02.762Z,17.60
2023-04-11T08:25:02.681Z,17.60
2023-04-11T08:26:02.197Z,17.60
2023-04-11T08:27:02.734Z,17.60
2023-04-11T08:28:02.931Z,17.60
2023-04-11T08:29:03.091Z,17.60
2023-04-11T08:30:02.986Z,17.60
2023-04-11T08:31:03.184Z,17.60
2023-04-11T08:32:02.444Z,15.30
2023-04-11T08:33:02.114Z,15.30
2023-04-11T08:34:03.834Z,15.30
2023-04-11T08:35:02.452Z,15.30
2023-04-11T08:36:02.419Z,15.30
2023-04-11T08:37:02.939Z,16.70
2023-04-11T08:38:02.997Z,16.70
2023-04-11T08:39:03.075Z,16.70
2023-04-11T08:40:03.079Z,16.70
2023-04-11T08:41:02.774Z,16.70
2023-04-11T08:42:02.565Z,11.00
2023-04-11T08:43:02.501Z,11.00
2023-04-11T08:44:02.282Z,11.00
2023-04-11T08:45:02.675Z,11.00
2023-04-11T08:46:02.294Z,11.00
2023-04-11T08:47:02.485Z,11.60
2023-04-11T08:48:02.939Z,11.60
2023-04-11T08:49:02.545Z,11.60
2023-04-11T08:50:02.765Z,11.60
2023-04-11T08:51:02.431Z,11.60
2023-04-11T08:52:02.746Z,12.80
2023-04-11T08:53:02.929Z,12.80
2023-04-11T08:54:02.873Z,12.80
2023-04-11T08:55:03.265Z,12.80
2023-04-11T08:56:03.022Z,12.80
2023-04-11T08:57:02.380Z,11.20
2023-04-11T08:58:02.062Z,11.20
2023-04-11T08:59:02.014Z,11.20
2023-04-11T09:00:02.206Z,11.20
2023-04-11T09:01:02.367Z,11.20
2023-04-11T09:02:02.936Z,14.30
2023-04-11T09:03:02.799Z,14.30
2023-04-11T09:04:02.541Z,14.30
2023-04-11T09:05:02.898Z,14.30
2023-04-11T09:06:02.198Z,14.30
2023-04-11T09:07:02.953Z,11.30
2023-04-11T09:08:03.341Z,11.30
2023-04-11T09:09:02.926Z,11.30
2023-04-11T09:10:03.217Z,11.30
2023-04-11T09:11:03.254Z,11.30
2023-04-11T09:12:02.952Z,11.40
2023-04-11T09:13:02.985Z,11.40
2023-04-11T09:14:02.788Z,11.40
2023-04-11T09:15:02.487Z,11.40
2023-04-11T09:16:02.676Z,11.40
2023-04-11T09:17:02.178Z,12.60
2023-04-11T09:18:02.327Z,12.60
2023-04-11T09:19:02.745Z,12.60
2023-04-11T09:20:02.775Z,12.60
2023-04-11T09:21:02.228Z,12.60
2023-04-11T09:22:02.370Z,11.40
2023-04-11T09:23:02.866Z,11.40
2023-04-11T09:24:02.361Z,11.40
2023-04-11T09:25:02.315Z,11.40
2023-04-11T09:26:02.678Z,11.40
2023-04-11T09:27:02.712Z,9.70
2023-04-11T09:28:02.957Z,9.70
2023-04-11T09:29:02.985Z,9.70
2023-04-11T09:30:02.897Z,9.70
2023-04-11T09:31:03.243Z,9.70
2023-04-11T09:32:02.170Z,12.40
2023-04-11T09:33:02.280Z,12.40
2023-04-11T09:34:02.297Z,12.40
2023-04-11T09:35:02.107Z,12.40
2023-04-11T09:36:02.622Z,12.40
2023-04-11T09:37:02.847Z,8.50
2023-04-11T09:38:02.949Z,8.50
2023-04-11T09:39:03.328Z,8.50
2023-04-11T09:40:03.973Z,8.50
2023-04-11T09:41:03.124Z,8.50
2023-04-11T09:42:02.119Z,6.90
2023-04-11T09:43:02.225Z,6.90
2023-04-11T09:44:02.472Z,6.90
2023-04-11T09:45:02.494Z,6.90
2023-04-11T09:46:02.618Z,6.90
2023-04-11T09:47:02.876Z,10.90
2023-04-11T09:48:03.061Z,10.90
2023-04-11T09:49:03.406Z,10.90
2023-04-11T09:50:03.132Z,10.90
2023-04-11T09:51:03.290Z,10.90
2023-04-11T09:52:02.229Z,10.40
2023-04-11T09:53:02.073Z,10.40
2023-04-11T09:54:02.361Z,10.40
2023-04-11T09:55:02.643Z,10.40
2023-04-11T09:56:02.307Z,10.40
2023-04-11T09:57:02.462Z,8.00
2023-04-11T09:58:02.780Z,8.00
2023-04-11T09:59:02.503Z,8.00
2023-04-11T10:00:02.479Z,8.00
2023-04-11T10:01:02.546Z,8.00
2023-04-11T10:02:02.937Z,10.70
2023-04-11T10:03:03.214Z,10.70
2023-04-11T10:04:02.837Z,10.70
2023-04-11T10:05:03.009Z,10.70
2023-04-11T10:06:03.162Z,10.70
2023-04-11T10:07:03.283Z,5.70
2023-04-11T10:08:03.586Z,5.70
2023-04-11T10:09:03.332Z,5.70
2023-04-11T10:10:03.536Z,5.70
2023-04-11T10:11:03.261Z,5.70
2023-04-11T10:12:02.458Z,11.90
2023-04-11T10:13:02.700Z,11.90
2023-04-11T10:14:02.804Z,11.90
2023-04-11T10:15:02.829Z,11.90
2023-04-11T10:16:02.746Z,11.90
2023-04-11T10:17:03.081Z,9.70
2023-04-11T10:18:03.239Z,9.70
2023-04-11T10:19:02.941Z,9.70
2023-04-11T10:20:03.154Z,9.70
2023-04-11T10:21:03.404Z,9.70
2023-04-11T10:22:03.071Z,8.60
2023-04-11T10:23:03.152Z,8.60
2023-04-11T10:24:03.460Z,8.60
2023-04-11T10:25:03.417Z,8.60
2023-04-11T10:26:03.369Z,8.60
2023-04-11T10:27:03.310Z,10.00
2023-04-11T10:28:03.146Z,10.00
2023-04-11T10:29:03.234Z,10.00
2023-04-11T10:30:03.384Z,10.00
2023-04-11T10:31:03.700Z,10.00
2023-04-11T10:32:03.565Z,9.70
2023-04-11T10:33:03.233Z,9.70
2023-04-11T10:34:03.339Z,9.70
2023-04-11T10:35:03.495Z,9.70
2023-04-11T10:36:03.489Z,9.70
2023-04-11T10:37:02.755Z,9.80
2023-04-11T10:38:02.599Z,9.80
2023-04-11T10:39:03.089Z,9.80
2023-04-11T10:40:02.895Z,9.80
2023-04-11T10:41:02.808Z,9.80
2023-04-11T10:42:03.410Z,9.40
2023-04-11T10:43:03.616Z,9.40
2023-04-11T10:44:03.186Z,9.40
2023-04-11T10:45:03.548Z,9.40
2023-04-11T10:46:03.729Z,9.40
2023-04-11T10:47:02.825Z,6.10
2023-04-11T10:48:02.651Z,6.10
2023-04-11T10:49:02.861Z,6.10
2023-04-11T10:50:02.726Z,6.10
2023-04-11T10:51:02.751Z,6.10
2023-04-11T10:52:03.499Z,8.30
2023-04-11T10:53:02.909Z,8.30
2023-04-11T10:54:03.178Z,8.30
2023-04-11T10:55:03.082Z,8.30
2023-04-11T10:56:03.050Z,8.30
2023-04-11T10:57:02.822Z,10.10
2023-04-11T10:58:02.793Z,10.10
2023-04-11T10:59:02.750Z,10.10
2023-04-11T11:00:02.873Z,10.10
2023-04-11T11:01:03.112Z,10.10
2023-04-11T11:02:03.111Z,7.30
2023-04-11T11:03:02.838Z,7.30
2023-04-11T11:04:03.115Z,7.30
2023-04-11T11:05:02.802Z,7.30
2023-04-11T11:06:02.685Z,7.30
2023-04-11T11:07:02.572Z,8.90
2023-04-11T11:08:02.149Z,8.90
2023-04-11T11:09:02.320Z,8.90
2023-04-11T11:10:02.353Z,8.90
2023-04-11T11:11:02.109Z,8.90
2023-04-11T11:12:02.838Z,11.10
2023-04-11T11:13:02.768Z,11.10
2023-04-11T11:14:02.697Z,11.10
2023-04-11T11:15:02.939Z,11.10
2023-04-11T11:16:02.731Z,11.10
2023-04-11T11:17:03.204Z,10.30
2023-04-11T11:18:02.515Z,10.30
2023-04-11T11:19:02.551Z,10.30
2023-04-11T11:20:02.914Z,10.30
2023-04-11T11:21:03.258Z,10.30
2023-04-11T11:22:02.468Z,12.40
2023-04-11T11:23:02.267Z,12.40
2023-04-11T11:24:02.369Z,12.40
2023-04-11T11:25:02.516Z,12.40
2023-04-11T11:26:02.449Z,12.40
2023-04-11T11:27:02.655Z,13.40
2023-04-11T11:28:02.150Z,13.40
2023-04-11T11:29:02.321Z,13.40
2023-04-11T11:30:02.394Z,13.40
2023-04-11T11:31:02.208Z,13.40
2023-04-11T11:32:03.038Z,7.20
2023-04-11T11:33:02.661Z,7.20
2023-04-11T11:34:18.353Z,7.20
2023-04-11T11:35:02.825Z,7.20
2023-04-11T11:36:02.730Z,7.20
2023-04-11T11:37:02.742Z,12.20
2023-04-11T11:38:02.751Z,12.20
2023-04-11T11:39:02.297Z,12.20
2023-04-11T11:40:02.624Z,12.20
2023-04-11T11:41:02.698Z,12.20
2023-04-11T11:42:03.219Z,7.70
2023-04-11T11:43:02.769Z,7.70
2023-04-11T11:44:03.143Z,7.70
2023-04-11T11:45:03.235Z,7.70
2023-04-11T11:46:04.789Z,7.70
2023-04-11T11:47:02.867Z,12.10
2023-04-11T11:48:02.397Z,12.10
2023-04-11T11:49:02.508Z,12.10
2023-04-11T11:50:02.430Z,12.10
2023-04-11T11:51:02.488Z,12.10
2023-04-11T11:52:03.190Z,7.10
2023-04-11T11:53:02.788Z,7.10
2023-04-11T11:54:02.914Z,7.10
2023-04-11T11:55:02.950Z,7.10
2023-04-11T11:56:02.885Z,7.10
2023-04-11T11:57:03.222Z,5.30
2023-04-11T11:58:03.083Z,5.30
2023-04-11T11:59:03.120Z,5.30
2023-04-11T12:00:02.611Z,5.30
2023-04-11T12:01:03.069Z,5.30
2023-04-11T12:02:03.266Z,9.90
2023-04-11T12:03:03.208Z,9.90
2023-04-11T12:04:03.320Z,9.90
2023-04-11T12:05:02.839Z,9.90
2023-04-11T12:06:02.894Z,9.90
2023-04-11T12:07:03.919Z,6.80
2023-04-11T12:08:03.960Z,6.80
2023-04-11T12:09:03.922Z,6.80
2023-04-11T12:10:03.652Z,6.80
2023-04-11T12:11:03.777Z,6.80
2023-04-11T12:12:02.794Z,6.80
2023-04-11T12:13:02.826Z,6.80
2023-04-11T12:14:02.818Z,6.80
2023-04-11T12:15:03.499Z,6.80
2023-04-11T12:16:03.501Z,6.80
2023-04-11T12:17:03.018Z,9.40
2023-04-11T12:18:03.479Z,9.40
2023-04-11T12:19:03.547Z,9.40
2023-04-11T12:20:03.136Z,9.40
2023-04-11T12:21:03.110Z,9.40
2023-04-11T12:22:03.276Z,8.30
2023-04-11T12:23:03.765Z,8.30
2023-04-11T12:24:03.330Z,8.30
2023-04-11T12:25:03.468Z,8.30
2023-04-11T12:26:03.760Z,8.30
2023-04-11T12:27:07.246Z,6.10
2023-04-11T12:28:03.999Z,6.10
2023-04-11T12:29:03.378Z,6.10
2023-04-11T12:30:03.419Z,6.10
2023-04-11T12:31:03.912Z,6.10
2023-04-11T12:32:03.866Z,7.60
2023-04-11T12:33:03.131Z,7.60
2023-04-11T12:34:03.261Z,7.60
2023-04-11T12:35:02.818Z,7.60
2023-04-11T12:36:02.947Z,7.60
2023-04-11T12:37:03.283Z,11.90
2023-04-11T12:38:02.657Z,11.90
2023-04-11T12:39:02.491Z,11.90
2023-04-11T12:40:02.690Z,11.90
2023-04-11T12:41:26.333Z,11.90
2023-04-11T12:42:02.534Z,7.40
2023-04-11T12:43:03.563Z,7.40
2023-04-11T12:44:03.164Z,7.40
2023-04-11T12:45:03.268Z,7.40
2023-04-11T12:46:03.576Z,7.40
2023-04-11T12:47:03.698Z,8.00
2023-04-11T12:48:03.515Z,8.00
2023-04-11T12:49:03.860Z,8.00
2023-04-11T12:50:03.661Z,8.00
2023-04-11T12:51:03.785Z,8.00
2023-04-11T12:52:03.327Z,5.70
2023-04-11T12:53:03.114Z,5.70
2023-04-11T12:54:03.195Z,5.70
2023-04-11T12:55:03.335Z,5.70
2023-04-11T12:56:03.258Z,5.70
2023-04-11T12:57:02.869Z,6.20
2023-04-11T12:58:03.815Z,6.20
2023-04-11T12:59:03.487Z,6.20
2023-04-11T13:00:03.897Z,6.20
2023-04-11T13:01:03.380Z,6.20